createdAt,value
2023-03-17T00:01:18.228Z,11.75
2023-03-17T00:03:46.379Z,14.35
2023-03-17T00:06:21.468Z,16.33
2023-03-17T00:08:48.439Z,16.45
2023-03-17T00:11:17.001Z,14.77
2023-03-17T00:13:46.341Z,13.80
2023-03-17T00:16:25.500Z,13.88
2023-03-17T00:18:53.948Z,16.05
2023-03-17T00:21:30.617Z,16.25
2023-03-17T00:23:58.688Z,16.25
2023-03-17T00:26:26.498Z,16.67
2023-03-17T00:28:54.847Z,14.73
2023-03-17T00:31:27.782Z,13.32
2023-03-17T00:33:55.437Z,14.95
2023-03-17T00:36:25.984Z,11.10
2023-03-17T00:38:52.989Z,11.85
2023-03-17T00:41:20.539Z,11.65
2023-03-17T00:43:47.491Z,11.18
2023-03-17T00:46:22.655Z,12.63
2023-03-17T00:48:49.732Z,10.63
2023-03-17T00:51:17.416Z,12.98
2023-03-17T00:53:44.916Z,16.33
2023-03-17T00:56:15.806Z,12.52
2023-03-17T00:58:43.684Z,12.35
2023-03-17T01:01:11.225Z,12.23
2023-03-17T01:03:38.864Z,11.55
2023-03-17T01:06:08.450Z,13.63
2023-03-17T01:08:37.014Z,12.20
2023-03-17T01:11:04.175Z,10.82
2023-03-17T01:13:31.100Z,10.75
2023-03-17T01:15:58.212Z,10.27
2023-03-17T01:18:25.830Z,10.98
2023-03-17T01:20:53.265Z,13.70
2023-03-17T01:23:20.409Z,10.07
2023-03-17T01:25:47.785Z,11.80
2023-03-17T01:28:18.030Z,9.10
2023-03-17T01:30:46.005Z,8.65
2023-03-17T01:33:14.532Z,9.80
2023-03-17T01:35:43.882Z,13.68
2023-03-17T01:38:11.919Z,11.70
2023-03-17T01:40:46.937Z,9.07
2023-03-17T01:43:20.008Z,9.70
2023-03-17T01:46:28.139Z,9.82
2023-03-17T01:49:13.394Z,16.60
2023-03-17T01:51:49.023Z,9.13
2023-03-17T01:54:36.258Z,11.00
2023-03-17T01:57:10.557Z,11.82
2023-03-17T01:59:43.668Z,12.02
2023-03-17T02:02:14.716Z,10.32
2023-03-17T02:04:41.819Z,12.20
2023-03-17T02:07:10.298Z,11.13
2023-03-17T02:09:41.631Z,10.95
2023-03-17T02:12:10.444Z,14.25
2023-03-17T02:14:37.444Z,12.25
2023-03-17T02:20:32.813Z,13.95
2023-03-17T02:23:01.389Z,10.45
2023-03-17T02:25:30.864Z,11.63
2023-03-17T02:28:02.545Z,11.45
2023-03-17T02:30:29.796Z,12.20
2023-03-17T02:32:57.065Z,13.00
2023-03-17T02:35:24.041Z,10.88
2023-03-17T02:37:51.364Z,9.07
2023-03-17T02:40:18.776Z,11.07
2023-03-17T02:42:45.728Z,11.05
2023-03-17T02:45:14.386Z,11.75
2023-03-17T02:47:42.415Z,9.63
2023-03-17T02:50:18.126Z,12.02
2023-03-17T02:52:45.248Z,9.55
2023-03-17T02:55:12.174Z,10.40
2023-03-17T02:57:39.257Z,13.90
2023-03-17T03:00:07.018Z,14.13
2023-03-17T03:02:34.335Z,14.48
2023-03-17T03:05:02.844Z,12.05
2023-03-17T03:07:30.073Z,13.45
2023-03-17T03:09:57.021Z,15.35
2023-03-17T03:12:24.340Z,18.25
2023-03-17T03:14:51.302Z,16.50
2023-03-17T03:17:18.440Z,12.65
2023-03-17T03:19:45.308Z,13.68
2023-03-17T03:22:12.510Z,12.23
2023-03-17T03:24:39.593Z,15.57
2023-03-17T03:27:06.969Z,13.93
2023-03-17T03:29:34.522Z,11.35
2023-03-17T03:32:01.663Z,13.70
2023-03-17T03:34:29.416Z,13.43
2023-03-17T03:36:57.113Z,11.77
2023-03-17T03:39:24.127Z,10.38
2023-03-17T03:41:51.275Z,8.52
2023-03-17T03:44:21.368Z,10.90
2023-03-17T03:46:48.419Z,9.25
2023-03-17T03:49:15.793Z,9.73
2023-03-17T03:51:42.758Z,9.48
2023-03-17T03:54:09.636Z,7.65
2023-03-17T03:56:36.707Z,9.45
2023-03-17T03:59:03.885Z,7.72
2023-03-17T04:01:30.878Z,11.18
2023-03-17T04:03:57.849Z,11.40
2023-03-17T04:06:24.908Z,12.15
2023-03-17T04:08:52.266Z,12.07
2023-03-17T06:34:24.909Z,14.75
2023-03-17T06:36:52.022Z,19.23
2023-03-17T06:39:19.058Z,15.73
2023-03-17T06:41:46.165Z,17.02
2023-03-17T06:44:13.351Z,14.75
2023-03-17T06:46:41.028Z,16.92
2023-03-17T06:49:08.412Z,18.67
2023-03-17T06:51:37.300Z,13.27
2023-03-17T06:54:05.016Z,15.67
2023-03-17T06:56:32.512Z,13.35
2023-03-17T06:58:59.437Z,18.95
2023-03-17T07:01:27.453Z,19.52
2023-03-17T07:03:55.688Z,14.93
2023-03-17T07:06:25.946Z,18.67
2023-03-17T07:08:53.193Z,14.32
2023-03-17T07:11:20.417Z,17.10
2023-03-17T07:13:47.526Z,16.17
2023-03-17T07:16:16.746Z,18.98
2023-03-17T07:18:43.818Z,14.90
2023-03-17T07:21:10.843Z,22.20
2023-03-17T07:23:40.677Z,20.23
2023-03-17T07:26:07.645Z,19.60
2023-03-17T07:28:34.497Z,14.68
2023-03-17T07:31:02.908Z,17.15
2023-03-17T07:33:31.225Z,13.52
2023-03-17T07:35:58.410Z,15.32
2023-03-17T07:38:25.927Z,16.00
2023-03-17T07:40:53.438Z,12.60
2023-03-17T07:43:20.720Z,17.77
2023-03-17T07:45:47.933Z,15.23
2023-03-17T07:48:14.992Z,13.98
2023-03-17T07:50:42.621Z,14.05
2023-03-17T07:53:10.222Z,15.15
2023-03-17T07:55:39.405Z,12.30
2023-03-17T07:58:11.061Z,11.98
2023-03-17T08:00:40.055Z,13.88
2023-03-17T08:03:10.584Z,14.32
2023-03-17T08:05:38.450Z,13.20
2023-03-17T08:08:06.837Z,19.48
2023-03-17T08:10:34.534Z,18.42
2023-03-17T08:13:01.910Z,14.55
2023-03-17T08:15:30.914Z,15.48
2023-03-17T08:18:01.425Z,15.60
2023-03-17T08:20:32.089Z,16.63
2023-03-17T08:23:01.939Z,18.48
2023-03-17T08:25:29.629Z,16.52
2023-03-17T08:27:56.453Z,16.63
2023-03-17T08:30:23.365Z,19.77
2023-03-17T08:32:50.359Z,11.65
2023-03-17T08:35:18.546Z,17.35
2023-03-17T08:37:47.168Z,16.00
2023-03-17T08:40:17.590Z,11.07
2023-03-17T08:42:46.034Z,11.05
2023-03-17T08:45:13.840Z,13.23
2023-03-17T08:47:40.854Z,10.93
2023-03-17T08:50:12.603Z,8.15
2023-03-17T08:52:39.651Z,9.80
2023-03-17T08:55:08.978Z,7.85
2023-03-17T08:57:36.538Z,7.55
2023-03-17T09:00:11.106Z,11.40
2023-03-17T09:02:39.287Z,8.38
2023-03-17T09:05:07.734Z,9.88
2023-03-17T09:07:34.702Z,8.50
2023-03-17T09:10:04.238Z,10.95
2023-03-17T09:12:33.142Z,13.13
2023-03-17T09:15:02.016Z,7.80
2023-03-17T09:17:29.244Z,8.55
2023-03-17T09:19:56.156Z,8.07
2023-03-17T09:22:23.357Z,10.15
2023-03-17T09:24:50.733Z,6.90
2023-03-17T09:27:17.851Z,5.72
2023-03-17T09:29:44.950Z,6.53
2023-03-17T09:32:11.954Z,7.22
2023-03-17T09:34:38.897Z,7.90
2023-03-17T09:37:06.826Z,7.55
2023-03-17T09:39:34.127Z,8.82
2023-03-17T09:42:38.962Z,10.38
2023-03-17T09:45:12.462Z,7.60
2023-03-17T09:48:12.070Z,7.68
2023-03-17T09:50:57.515Z,6.40
2023-03-17T09:53:57.087Z,9.23
2023-03-17T09:56:24.871Z,6.55
2023-03-17T09:59:17.571Z,6.28
2023-03-17T10:01:44.916Z,5.88
2023-03-17T10:04:12.316Z,6.50
2023-03-17T10:06:46.811Z,7.88
2023-03-17T10:09:43.144Z,6.35
2023-03-17T10:12:24.731Z,7.38
2023-03-17T10:14:58.199Z,7.20
2023-03-17T10:17:39.332Z,6.47
2023-03-17T10:20:12.261Z,6.22
2023-03-17T10:22:39.221Z,7.30
2023-03-17T10:25:18.125Z,10.13
2023-03-17T10:28:11.549Z,5.72
2023-03-17T10:30:39.026Z,7.72
2023-03-17T10:33:09.735Z,5.50
2023-03-17T10:35:39.609Z,5.85
2023-03-17T10:38:15.867Z,5.30
2023-03-17T10:40:47.774Z,5.38
2023-03-17T10:43:20.672Z,6.22
2023-03-17T10:45:58.686Z,6.88
2023-03-17T10:48:26.646Z,6.13
2023-03-17T10:50:59.020Z,6.40
2023-03-17T10:53:28.465Z,6.38
2023-03-17T10:56:06.798Z,6.95
2023-03-17T10:58:39.916Z,5.60
2023-03-17T11:01:30.403Z,5.25
2023-03-17T11:03:58.042Z,6.22
2023-03-17T11:06:36.855Z,5.32
2023-03-17T11:09:16.683Z,5.70
2023-03-17T11:12:00.225Z,7.00
2023-03-17T11:14:28.318Z,6.75
2023-03-17T11:17:01.533Z,8.98
2023-03-17T11:19:43.775Z,6.43
2023-03-17T11:22:30.925Z,7.25
2023-03-17T11:25:23.498Z,9.30
2023-03-17T11:28:12.050Z,6.85
2023-03-17T11:30:57.685Z,5.30
2023-03-17T11:33:43.095Z,5.55
2023-03-17T11:37:00.448Z,5.20
2023-03-17T11:39:36.355Z,6.47
2023-03-17T11:42:27.573Z,5.43
2023-03-17T11:45:16.805Z,6.43
2023-03-17T11:48:23.828Z,5.68
2023-03-17T11:51:02.192Z,6.18
2023-03-17T11:53:52.692Z,6.15
2023-03-17T11:56:30.722Z,8.07
2023-03-17T11:59:03.835Z,8.07
2023-03-17T12:01:44.258Z,6.82
2023-03-17T12:04:40.761Z,9.15
2023-03-17T12:07:21.450Z,5.63
2023-03-17T12:10:05.994Z,5.80
2023-03-17T12:12:39.043Z,6.55
2023-03-17T12:15:14.731Z,5.72
2023-03-17T12:17:56.465Z,6.32
2023-03-17T12:20:46.613Z,5.90
2023-03-17T12:23:31.868Z,6.85
2023-03-17T12:26:12.398Z,5.25
2023-03-17T12:28:58.550Z,5.82
2023-03-17T12:31:44.518Z,6.15
2023-03-17T12:34:42.443Z,5.15
2023-03-17T12:37:09.994Z,5.18
2023-03-17T12:39:40.182Z,5.25
2023-03-17T12:42:28.939Z,6.43
2023-03-17T12:45:33.499Z,9.90
2023-03-17T12:48:29.994Z,5.28
2023-03-17T12:51:26.356Z,6.82
2023-03-17T12:53:54.318Z,5.28
2023-03-17T12:56:31.303Z,6.55
2023-03-17T12:59:09.384Z,5.70
2023-03-17T13:01:45.057Z,4.45
2023-03-17T13:04:22.195Z,4.55
2023-03-17T13:06:59.732Z,4.65
2023-03-17T13:09:39.591Z,4.93
2023-03-17T13:12:08.031Z,4.75
2023-03-17T13:14:52.144Z,7.57
2023-03-17T13:17:19.998Z,5.22
2023-03-17T13:19:55.505Z,4.78
2023-03-17T13:22:22.572Z,4.80
2023-03-17T13:24:53.745Z,5.00
2023-03-17T13:27:32.928Z,6.00
2023-03-17T13:30:22.226Z,5.32
2023-03-17T13:33:20.178Z,4.65
2023-03-17T13:36:17.359Z,4.32
2023-03-17T13:39:18.845Z,6.28
2023-03-17T13:42:01.064Z,4.60
2023-03-17T13:44:41.274Z,4.13
2023-03-17T13:47:36.809Z,4.28
2023-03-17T13:50:32.684Z,4.38
2023-03-17T13:53:08.702Z,6.05
2023-03-17T13:55:42.118Z,4.57
2023-03-17T13:58:11.310Z,8.10
2023-03-17T14:03:14.870Z,5.32
2023-03-17T14:05:46.633Z,4.68
2023-03-17T14:08:38.629Z,6.95
2023-03-17T14:11:23.782Z,5.47
2023-03-17T14:14:26.114Z,4.70
2023-03-17T14:17:16.147Z,6.22
2023-03-17T14:20:18.543Z,5.30
2023-03-17T14:22:48.627Z,4.88
2023-03-17T14:25:23.593Z,4.60
2023-03-17T14:27:56.962Z,4.80
2023-03-17T14:30:26.588Z,4.95
2023-03-17T14:35:39.038Z,5.55
2023-03-17T14:38:22.998Z,4.78
2023-03-17T14:41:02.172Z,5.70
2023-03-17T14:43:29.415Z,4.78
2023-03-17T14:46:08.123Z,4.78
2023-03-17T14:48:41.533Z,3.77
2023-03-17T14:51:24.051Z,7.18
2023-03-17T14:53:52.934Z,5.30
2023-03-17T14:56:25.831Z,4.20
2023-03-17T14:58:53.648Z,4.93
2023-03-17T15:01:34.211Z,3.90
2023-03-17T15:04:15.946Z,3.72
2023-03-17T15:07:03.691Z,5.20
2023-03-17T15:09:33.677Z,5.03
2023-03-17T15:12:16.774Z,4.55
2023-03-17T15:14:46.079Z,6.07
2023-03-17T15:17:16.846Z,4.55
2023-03-17T15:19:50.027Z,4.53
2023-03-17T15:22:44.552Z,4.10
2023-03-17T15:25:32.848Z,3.28
2023-03-17T15:28:00.243Z,4.00
2023-03-17T15:30:37.369Z,5.07
2023-03-17T15:33:46.519Z,4.57
2023-03-17T15:36:31.382Z,5.40
2023-03-17T15:38:59.194Z,4.88
2023-03-17T15:41:26.868Z,5.45
2023-03-17T15:43:54.014Z,5.60
2023-03-17T15:46:31.212Z,7.00
2023-03-17T15:48:58.829Z,5.38
2023-03-17T15:51:26.457Z,3.72
2023-03-17T15:53:53.466Z,4.55
2023-03-17T15:56:21.409Z,4.10
2023-03-17T15:58:51.635Z,5.38
2023-03-17T16:01:19.907Z,3.72
2023-03-17T16:03:48.843Z,4.10
2023-03-17T16:06:18.990Z,3.80
2023-03-17T16:08:50.086Z,4.55
2023-03-17T16:11:28.041Z,10.50
2023-03-17T16:13:56.340Z,7.53
2023-03-17T16:16:37.030Z,5.82
2023-03-17T16:19:12.868Z,5.88
2023-03-17T16:21:41.898Z,6.00
2023-03-17T16:24:19.500Z,5.53
2023-03-17T16:26:46.754Z,5.85
2023-03-17T16:29:14.776Z,6.72
2023-03-17T16:31:44.031Z,6.95
2023-03-17T16:34:19.449Z,5.25
2023-03-17T16:36:47.086Z,3.65
2023-03-17T16:39:33.840Z,3.45
2023-03-17T16:42:02.126Z,3.58
2023-03-17T16:44:29.158Z,4.20
2023-03-17T16:46:56.146Z,10.93
2023-03-17T16:49:23.244Z,5.75
2023-03-17T16:51:50.755Z,4.90
2023-03-17T16:54:17.939Z,4.35
2023-03-17T16:56:45.582Z,6.47
2023-03-17T16:59:20.967Z,5.22
2023-03-17T17:01:48.162Z,4.25
2023-03-17T17:04:15.384Z,3.83
2023-03-17T17:06:42.481Z,5.22
2023-03-17T17:09:14.585Z,4.90
2023-03-17T17:11:44.235Z,3.90
2023-03-17T17:14:11.275Z,6.10
2023-03-17T17:16:42.053Z,5.03
2023-03-17T17:19:18.230Z,4.45
2023-03-17T17:21:45.732Z,6.93
2023-03-17T17:24:13.975Z,6.00
2023-03-17T17:26:41.512Z,28.80
2023-03-17T17:29:08.495Z,36.33
2023-03-17T17:31:35.631Z,11.45
2023-03-17T17:34:02.600Z,7.32
2023-03-17T17:36:29.899Z,6.35
2023-03-17T17:38:56.888Z,8.32
2023-03-17T17:41:24.382Z,7.65
2023-03-17T17:43:51.667Z,8.23
2023-03-17T17:46:25.643Z,8.23
2023-03-17T17:48:52.753Z,6.40
2023-03-17T17:51:19.828Z,8.50
2023-03-17T17:53:47.153Z,9.25
2023-03-17T17:56:15.819Z,11.02
2023-03-17T17:58:43.847Z,11.15
2023-03-17T18:01:13.751Z,14.50
2023-03-17T18:03:43.870Z,9.35
2023-03-17T18:06:13.064Z,10.27
2023-03-17T18:08:40.858Z,9.85
2023-03-17T18:11:08.105Z,11.35
2023-03-17T18:13:36.176Z,13.77
2023-03-17T18:16:04.130Z,10.13
2023-03-17T18:18:33.508Z,13.70
2023-03-17T18:21:00.581Z,10.07
2023-03-17T18:23:28.051Z,10.75
2023-03-17T18:26:02.094Z,6.35
2023-03-17T18:28:29.792Z,8.80
2023-03-17T18:31:07.644Z,7.72
2023-03-17T18:33:34.660Z,14.20
2023-03-17T18:36:06.146Z,18.58
2023-03-17T18:38:37.815Z,15.25
2023-03-17T18:41:07.221Z,20.63
2023-03-17T18:43:34.164Z,25.33
2023-03-17T18:46:01.066Z,16.35
2023-03-17T18:48:27.917Z,13.60
2023-03-17T18:50:54.875Z,18.92
2023-03-17T18:53:22.425Z,20.10
2023-03-17T18:55:49.304Z,22.27
2023-03-17T18:58:16.242Z,14.38
2023-03-17T19:00:43.205Z,14.63
2023-03-17T19:03:10.105Z,15.32
2023-03-17T19:05:40.968Z,18.98
2023-03-17T19:08:08.019Z,21.58
2023-03-17T19:10:35.163Z,20.70
2023-03-17T19:13:02.275Z,16.80
2023-03-17T19:15:29.177Z,14.93
2023-03-17T19:17:56.135Z,18.42
2023-03-17T19:20:22.994Z,17.50
2023-03-17T19:22:53.282Z,15.10
2023-03-17T19:25:21.263Z,15.20
2023-03-17T19:27:48.161Z,16.85
2023-03-17T19:30:15.367Z,24.58
2023-03-17T19:32:42.270Z,26.35
2023-03-17T19:35:09.513Z,24.85
2023-03-17T19:37:38.111Z,21.85
2023-03-17T19:40:10.219Z,19.40
2023-03-17T19:42:37.559Z,22.65
2023-03-17T19:45:05.134Z,21.77
2023-03-17T19:47:32.144Z,19.27
2023-03-17T19:49:59.205Z,23.52
2023-03-17T19:52:26.178Z,24.80
2023-03-17T19:54:52.981Z,23.77
2023-03-17T19:57:20.945Z,23.77
2023-03-17T19:59:48.016Z,22.40
2023-03-17T20:02:16.776Z,29.75
2023-03-17T20:04:44.435Z,17.92
2023-03-17T20:07:11.825Z,16.95
2023-03-17T20:09:39.342Z,16.83
2023-03-17T20:12:06.660Z,12.27
2023-03-17T20:14:33.962Z,12.00
2023-03-17T20:17:00.966Z,15.02
2023-03-17T20:19:27.840Z,12.05
2023-03-17T20:21:54.748Z,13.68
2023-03-17T20:24:22.333Z,16.58
2023-03-17T20:26:49.506Z,12.48
2023-03-17T20:29:17.478Z,16.38
2023-03-17T20:31:44.440Z,14.82
2023-03-17T20:34:11.790Z,10.65
2023-03-17T20:36:42.266Z,15.00
2023-03-17T20:39:13.129Z,11.85
2023-03-17T20:41:40.170Z,14.55
2023-03-17T20:44:07.398Z,13.52
2023-03-17T20:46:34.443Z,12.68
2023-03-17T20:49:02.016Z,15.68
2023-03-17T20:51:28.886Z,14.63
2023-03-17T20:53:56.788Z,15.27
2023-03-17T20:56:26.450Z,14.07
2023-03-17T20:58:53.558Z,15.93
2023-03-17T21:01:21.520Z,14.15
2023-03-17T21:03:49.580Z,15.43
2023-03-17T21:06:17.520Z,16.00
2023-03-17T21:08:46.279Z,13.88
2023-03-17T21:11:18.877Z,12.55
2023-03-17T21:13:46.026Z,10.38
2023-03-17T21:16:20.891Z,10.95
2023-03-17T21:18:48.454Z,12.00
2023-03-17T21:21:16.618Z,12.25
2023-03-17T21:23:44.059Z,14.98
2023-03-17T21:26:11.371Z,15.38
2023-03-17T21:28:41.856Z,11.23
2023-03-17T21:31:09.633Z,13.45
2023-03-17T21:33:37.136Z,13.13
2023-03-17T21:36:06.378Z,13.02
2023-03-17T21:38:33.433Z,15.27
2023-03-17T21:41:37.889Z,17.30
2023-03-17T21:44:06.239Z,20.17
2023-03-17T21:46:33.576Z,23.40
2023-03-17T21:49:01.478Z,16.20
2023-03-17T21:51:28.491Z,24.75
2023-03-17T21:53:55.994Z,19.25
2023-03-17T21:56:23.068Z,16.90
2023-03-17T21:58:50.223Z,19.05
2023-03-17T22:01:18.803Z,14.98
2023-03-17T22:03:46.002Z,14.77
2023-03-17T22:06:16.248Z,18.20
2023-03-17T22:08:43.897Z,15.13
2023-03-17T22:11:13.507Z,17.55
2023-03-17T22:13:41.352Z,17.05
2023-03-17T22:16:09.289Z,16.42
2023-03-17T22:18:37.311Z,24.83
2023-03-17T22:21:05.635Z,22.80
2023-03-17T22:23:37.126Z,24.77
2023-03-17T22:26:04.429Z,22.98
2023-03-17T22:28:31.230Z,18.02
2023-03-17T22:30:58.444Z,13.85
2023-03-17T22:33:25.264Z,14.05
2023-03-17T22:35:52.333Z,14.73
2023-03-17T22:38:19.267Z,17.85
2023-03-17T22:40:46.259Z,17.10
2023-03-17T22:43:13.121Z,14.18
2023-03-17T22:45:40.272Z,13.38
2023-03-17T22:48:07.215Z,10.98
2023-03-17T22:50:34.515Z,18.05
2023-03-17T22:53:01.444Z,13.65
2023-03-17T22:55:28.309Z,17.25
2023-03-17T22:57:55.180Z,17.65
2023-03-17T23:00:22.967Z,20.38
2023-03-17T23:02:49.765Z,17.58
2023-03-17T23:05:16.718Z,14.63
2023-03-17T23:07:51.749Z,18.75
2023-03-17T23:10:24.644Z,17.23
2023-03-17T23:12:52.550Z,14.23
2023-03-17T23:15:20.892Z,19.30
2023-03-17T23:17:47.956Z,16.40
2023-03-17T23:20:15.457Z,20.25
2023-03-17T23:22:42.824Z,21.58
2023-03-17T23:25:10.553Z,20.48
2023-03-17T23:27:37.552Z,20.98
2023-03-17T23:30:05.723Z,22.08
2023-03-17T23:32:32.760Z,21.83
2023-03-17T23:34:59.844Z,20.20
2023-03-17T23:37:27.382Z,20.33
2023-03-17T23:39:55.020Z,22.48
2023-03-17T23:42:22.417Z,21.52
2023-03-17T23:44:50.281Z,18.67
2023-03-17T23:47:17.792Z,21.35
2023-03-17T23:49:44.979Z,21.27
2023-03-17T23:52:11.876Z,16.70
2023-03-17T23:54:39.479Z,17.83
2023-03-17T23:57:06.507Z,17.30
2023-03-17T23:59:34.761Z,18.90
